Time;durP1;ratioP1;P1;durP2;ratioP2;P2;SDS_P1;SDS_P2;PMS_P1;PMS_P2;Temp;Humidity;BMP_temperature;BMP_pressure;BME280_temperature;BME280_humidity;BME280_pressure;Samples;Min_cycle;Max_cycle;Signal;HPM_P1;HPM_P2
2023/04/24 00:01:47;;;;;;;3.97;2.47;;;11.70;99.90;;;;;;5060126;28;20025;-73
2023/04/24 00:04:16;;;;;;;5.50;2.92;;;11.70;99.90;;;;;;5060054;28;20033;-70
2023/04/24 00:06:42;;;;;;;8.07;3.40;;;11.60;99.90;;;;;;5058581;28;20085;-71
2023/04/24 00:09:09;;;;;;;4.55;3.00;;;11.60;99.90;;;;;;5061309;28;20025;-74
2023/04/24 00:11:35;;;;;;;5.65;3.05;;;11.60;99.90;;;;;;5061594;28;20033;-74
2023/04/24 00:14:01;;;;;;;5.55;3.03;;;11.60;99.90;;;;;;5062378;28;20033;-74
2023/04/24 00:16:27;;;;;;;5.88;3.25;;;11.60;99.90;;;;;;5062042;28;20040;-76
2023/04/24 00:18:53;;;;;;;5.50;3.28;;;11.60;99.90;;;;;;5063567;28;20021;-75
2023/04/24 00:21:19;;;;;;;8.32;3.08;;;11.60;99.90;;;;;;5062257;28;20115;-72
2023/04/24 00:23:44;;;;;;;4.60;2.75;;;11.60;99.90;;;;;;5062836;28;20055;-74
2023/04/24 00:26:10;;;;;;;4.80;3.10;;;11.50;99.90;;;;;;5063641;28;20552;-72
2023/04/24 00:28:36;;;;;;;3.83;2.70;;;11.60;99.90;;;;;;5062627;28;20998;-74
2023/04/24 00:31:02;;;;;;;4.03;2.55;;;11.60;99.90;;;;;;5063132;28;20052;-72
2023/04/24 00:33:27;;;;;;;5.57;2.50;;;11.60;99.90;;;;;;5063037;28;20048;-71
2023/04/24 00:35:53;;;;;;;4.60;2.60;;;11.60;99.90;;;;;;5061756;28;20013;-72
2023/04/24 00:38:19;;;;;;;2.83;2.50;;;11.70;99.90;;;;;;5063247;28;20094;-76
2023/04/24 00:40:44;;;;;;;4.40;2.70;;;11.70;99.90;;;;;;5062290;28;20033;-75
2023/04/24 00:43:10;;;;;;;5.25;2.80;;;11.60;99.90;;;;;;5063206;28;20060;-73
2023/04/24 00:45:36;;;;;;;4.10;2.63;;;11.70;99.90;;;;;;5062887;28;20056;-73
2023/04/24 00:48:02;;;;;;;6.25;2.67;;;11.60;99.90;;;;;;5063220;28;20423;-74
2023/04/24 00:50:29;;;;;;;5.47;3.65;;;11.60;99.90;;;;;;5061716;28;20025;-76
2023/04/24 00:52:54;;;;;;;5.20;3.30;;;11.70;99.90;;;;;;5060894;28;20094;-73
2023/04/24 00:55:20;;;;;;;4.25;3.00;;;11.70;99.90;;;;;;5061954;28;20025;-76
2023/04/24 00:57:48;;;;;;;4.35;3.20;;;11.70;99.90;;;;;;5062447;28;20063;-75
2023/04/24 01:00:16;;;;;;;4.53;3.20;;;11.70;99.90;;;;;;5062884;28;20025;-72
2023/04/24 01:02:44;;;;;;;4.60;3.58;;;11.70;99.90;;;;;;5062565;28;20067;-77
2023/04/24 01:05:14;;;;;;;8.75;3.22;;;11.60;99.90;;;;;;5060988;28;20041;-73
2023/04/24 01:07:45;;;;;;;4.57;2.97;;;11.60;99.90;;;;;;5062592;28;20040;-75
2023/04/24 01:10:12;;;;;;;3.75;2.63;;;11.60;99.90;;;;;;5062846;28;20036;-72
2023/04/24 01:12:38;;;;;;;2.88;2.53;;;11.60;99.90;;;;;;5061187;28;20033;-75
2023/04/24 01:15:06;;;;;;;5.95;3.00;;;11.50;99.90;;;;;;5062183;28;20050;-72
2023/04/24 01:17:32;;;;;;;3.85;2.55;;;11.50;99.90;;;;;;5061211;28;20040;-71
2023/04/24 01:19:59;;;;;;;4.22;2.88;;;11.50;99.90;;;;;;5060354;28;20021;-70
2023/04/24 01:22:25;;;;;;;4.93;2.70;;;11.50;99.90;;;;;;5062417;28;20036;-72
2023/04/24 01:24:52;;;;;;;3.47;2.70;;;11.50;99.90;;;;;;5061165;28;20017;-74
2023/04/24 01:27:19;;;;;;;4.18;3.00;;;11.50;99.90;;;;;;5060476;28;21527;-72
2023/04/24 01:29:45;;;;;;;5.85;3.20;;;11.40;99.90;;;;;;5062478;28;20136;-76
2023/04/24 01:32:11;;;;;;;3.97;3.20;;;11.40;99.90;;;;;;5061471;28;20470;-75
2023/04/24 01:34:37;;;;;;;4.25;3.30;;;11.40;99.90;;;;;;5060771;28;20124;-76
2023/04/24 01:37:03;;;;;;;5.20;3.55;;;11.40;99.90;;;;;;5060670;28;20024;-76
2023/04/24 01:39:28;;;;;;;3.85;3.20;;;11.30;99.90;;;;;;5060718;28;20028;-77
2023/04/24 01:41:55;;;;;;;4.75;3.10;;;11.30;99.90;;;;;;5061443;28;21318;-72
2023/04/24 01:44:21;;;;;;;3.42;3.10;;;11.30;99.90;;;;;;5061596;28;20046;-73
2023/04/24 01:46:47;;;;;;;3.88;3.47;;;11.30;99.90;;;;;;5060718;28;20029;-72
2023/04/24 01:49:13;;;;;;;3.53;3.08;;;11.30;99.90;;;;;;5062010;28;20032;-76
2023/04/24 01:51:39;;;;;;;3.42;2.78;;;11.30;99.90;;;;;;5060609;28;20063;-75
2023/04/24 01:54:05;;;;;;;6.47;3.20;;;11.20;99.90;;;;;;5061035;28;20545;-73
2023/04/24 01:56:34;;;;;;;3.10;2.50;;;11.20;99.90;;;;;;5061919;28;20074;-71
2023/04/24 01:59:02;;;;;;;4.43;3.00;;;11.20;99.90;;;;;;5061575;28;20033;-70
2023/04/24 02:01:32;;;;;;;3.00;2.55;;;11.20;99.90;;;;;;5060305;28;20418;-71
2023/04/24 02:03:58;;;;;;;3.10;2.45;;;11.20;99.90;;;;;;5061726;28;20036;-72
2023/04/24 02:06:23;;;;;;;3.20;2.50;;;11.20;99.90;;;;;;5061246;28;20029;-76
2023/04/24 02:08:49;;;;;;;3.03;2.50;;;11.20;99.90;;;;;;5060600;28;20092;-73
2023/04/24 02:11:14;;;;;;;4.68;2.78;;;11.20;99.90;;;;;;5060169;28;20044;-73
2023/04/24 02:13:40;;;;;;;4.28;2.75;;;11.20;99.90;;;;;;5061526;28;20029;-73
2023/04/24 02:16:05;;;;;;;5.85;2.60;;;11.20;99.90;;;;;;5059960;28;20524;-75
2023/04/24 02:18:31;;;;;;;3.97;2.70;;;11.30;99.90;;;;;;5060301;28;20035;-70
2023/04/24 02:20:57;;;;;;;5.00;2.85;;;11.20;99.90;;;;;;5061286;28;20060;-71
2023/04/24 02:23:22;;;;;;;4.82;2.70;;;11.20;99.90;;;;;;5061098;28;20433;-74
2023/04/24 02:25:48;;;;;;;4.18;3.05;;;11.30;99.90;;;;;;5058790;28;20021;-73
2023/04/24 02:28:14;;;;;;;5.72;2.70;;;11.30;99.90;;;;;;5061154;28;20079;-74
2023/04/24 02:30:39;;;;;;;3.10;2.35;;;11.30;99.90;;;;;;5059671;28;20105;-72
2023/04/24 02:33:05;;;;;;;4.07;2.70;;;11.30;99.90;;;;;;5059742;28;20166;-72
2023/04/24 02:35:30;;;;;;;4.90;3.00;;;11.30;99.90;;;;;;5059970;28;20021;-71
2023/04/24 02:37:56;;;;;;;3.35;2.65;;;11.30;99.90;;;;;;5059853;28;20025;-73
2023/04/24 02:40:22;;;;;;;3.92;2.50;;;11.30;99.90;;;;;;5060721;28;20060;-75
2023/04/24 02:42:47;;;;;;;3.85;2.38;;;11.30;99.90;;;;;;5059308;28;20437;-74
2023/04/24 02:45:13;;;;;;;5.70;2.97;;;11.40;99.90;;;;;;5059499;28;20063;-70
2023/04/24 02:47:38;;;;;;;4.07;2.75;;;11.30;99.90;;;;;;5059504;28;20063;-70
2023/04/24 02:50:04;;;;;;;3.50;2.78;;;11.40;99.90;;;;;;5059826;28;20036;-74
2023/04/24 02:52:30;;;;;;;4.57;3.30;;;11.30;99.90;;;;;;5060642;28;20466;-71
2023/04/24 02:54:55;;;;;;;3.80;3.28;;;11.30;99.90;;;;;;5060820;28;20088;-76
2023/04/24 02:57:21;;;;;;;7.32;3.83;;;11.30;99.90;;;;;;5059116;28;20028;-71
2023/04/24 02:59:46;;;;;;;6.55;4.65;;;11.30;99.90;;;;;;5060919;28;20032;-72
2023/04/24 03:02:12;;;;;;;7.30;5.50;;;11.30;99.90;;;;;;5060564;28;20033;-73
2023/04/24 03:04:39;;;;;;;10.50;5.78;;;11.20;99.90;;;;;;5059230;28;20029;-73
2023/04/24 03:07:05;;;;;;;8.25;6.10;;;11.20;99.90;;;;;;5059665;28;20025;-73
2023/04/24 03:09:31;;;;;;;7.85;6.70;;;11.10;99.90;;;;;;5059262;28;20063;-75
2023/04/24 03:11:57;;;;;;;8.00;6.65;;;11.00;99.90;;;;;;5060716;28;20072;-77
2023/04/24 03:14:22;;;;;;;8.65;6.88;;;11.00;99.90;;;;;;5059023;28;20063;-74
2023/04/24 03:16:48;;;;;;;9.18;7.10;;;11.00;99.90;;;;;;5060559;28;20025;-75
2023/04/24 03:19:13;;;;;;;9.23;6.90;;;11.00;99.90;;;;;;5059403;28;20035;-72
2023/04/24 03:21:40;;;;;;;8.32;6.65;;;10.90;99.90;;;;;;5060120;28;20025;-74
2023/04/24 03:24:07;;;;;;;9.80;6.47;;;10.90;99.90;;;;;;5060125;28;20036;-71
2023/04/24 03:26:33;;;;;;;8.60;6.88;;;10.90;99.90;;;;;;5058831;28;20017;-74
2023/04/24 03:28:59;;;;;;;10.95;6.88;;;10.90;99.90;;;;;;5059166;28;20020;-73
2023/04/24 03:31:24;;;;;;;9.00;6.93;;;10.90;99.90;;;;;;5060126;28;20052;-74
2023/04/24 03:33:50;;;;;;;11.63;6.90;;;10.80;99.90;;;;;;5061894;28;20036;-71
2023/04/24 03:36:17;;;;;;;9.30;7.72;;;10.80;99.90;;;;;;5061432;28;20466;-73
2023/04/24 03:38:42;;;;;;;8.00;6.60;;;10.80;99.90;;;;;;5060394;28;20025;-74
2023/04/24 03:41:08;;;;;;;10.98;7.22;;;10.80;99.90;;;;;;5061264;28;20584;-77
2023/04/24 03:43:34;;;;;;;9.55;6.95;;;10.80;99.90;;;;;;5063019;28;20036;-71
2023/04/24 03:46:00;;;;;;;9.13;7.07;;;10.90;99.90;;;;;;5065333;28;20596;-76
2023/04/24 03:48:26;;;;;;;9.85;6.63;;;10.90;99.90;;;;;;5065747;28;20797;-69
2023/04/24 03:50:51;;;;;;;12.45;6.20;;;10.90;99.90;;;;;;5065383;28;20036;-70
2023/04/24 03:53:17;;;;;;;8.90;7.00;;;10.90;99.90;;;;;;5065334;28;20029;-71
2023/04/24 03:55:43;;;;;;;7.60;5.43;;;10.90;99.90;;;;;;5065433;28;20089;-70
2023/04/24 03:58:08;;;;;;;8.65;6.38;;;10.90;99.90;;;;;;5065505;28;20020;-71
2023/04/24 04:00:34;;;;;;;10.07;5.82;;;10.90;99.90;;;;;;5064268;28;20032;-72
2023/04/24 04:03:01;;;;;;;9.57;6.85;;;10.90;99.90;;;;;;5064812;28;20028;-73
2023/04/24 04:05:26;;;;;;;8.75;6.57;;;10.90;99.90;;;;;;5065396;28;20025;-71
2023/04/24 04:07:52;;;;;;;10.68;7.25;;;10.90;99.90;;;;;;5064896;28;20140;-72
2023/04/24 04:10:17;;;;;;;10.70;6.95;;;10.90;99.90;;;;;;5065209;28;20546;-73
2023/04/24 04:12:43;;;;;;;10.95;6.57;;;10.90;99.90;;;;;;5065221;28;20029;-72
2023/04/24 04:15:09;;;;;;;10.25;7.07;;;10.90;99.90;;;;;;5063661;28;20021;-72
2023/04/24 04:17:34;;;;;;;10.27;6.93;;;10.90;99.90;;;;;;5065139;28;20082;-69
2023/04/24 04:20:01;;;;;;;13.68;7.55;;;11.00;99.90;;;;;;5063310;28;20021;-76
2023/04/24 04:22:26;;;;;;;9.70;6.70;;;10.90;99.90;;;;;;5063733;28;20057;-74
2023/04/24 04:24:52;;;;;;;9.40;7.13;;;11.00;99.90;;;;;;5063460;28;20036;-69
2023/04/24 04:27:18;;;;;;;9.32;6.57;;;10.90;99.90;;;;;;5064986;28;20017;-74
2023/04/24 04:29:44;;;;;;;10.95;6.65;;;10.90;99.90;;;;;;5064622;28;20104;-73
2023/04/24 04:32:10;;;;;;;8.40;6.45;;;10.90;99.90;;;;;;5063320;28;20052;-71
2023/04/24 04:34:37;;;;;;;9.15;5.97;;;10.90;99.90;;;;;;5064244;28;20021;-74
2023/04/24 04:37:03;;;;;;;12.50;5.63;;;10.90;99.90;;;;;;5063522;28;20391;-70
2023/04/24 04:39:30;;;;;;;8.07;5.88;;;10.90;99.90;;;;;;5064877;28;20064;-73
2023/04/24 04:41:56;;;;;;;7.45;5.13;;;10.90;99.90;;;;;;5063171;28;20009;-69
2023/04/24 04:44:21;;;;;;;7.38;5.40;;;10.90;99.90;;;;;;5064310;28;20025;-73
2023/04/24 04:46:47;;;;;;;6.35;4.30;;;10.90;99.90;;;;;;5063283;28;20151;-70
2023/04/24 04:49:13;;;;;;;8.15;5.88;;;10.90;99.90;;;;;;5064167;28;20029;-68
2023/04/24 04:51:38;;;;;;;7.43;4.93;;;10.90;99.90;;;;;;5064403;28;20029;-72
2023/04/24 04:54:04;;;;;;;7.07;4.93;;;10.90;99.90;;;;;;5062708;28;20504;-74
2023/04/24 04:56:30;;;;;;;8.70;5.22;;;10.90;99.90;;;;;;5063459;28;20021;-72
2023/04/24 04:58:56;;;;;;;7.50;5.05;;;10.90;99.90;;;;;;5063118;28;20036;-73
2023/04/24 05:01:22;;;;;;;6.75;5.20;;;11.00;99.90;;;;;;5064263;28;20051;-73
2023/04/24 05:03:48;;;;;;;7.45;4.40;;;11.00;99.90;;;;;;5062185;28;20815;-70
2023/04/24 05:06:14;;;;;;;7.22;5.03;;;11.00;99.90;;;;;;5064139;28;20040;-74
2023/04/24 05:08:39;;;;;;;6.80;4.70;;;11.00;99.90;;;;;;5062772;28;20043;-70
2023/04/24 05:11:06;;;;;;;9.85;5.15;;;11.00;99.90;;;;;;5064140;28;20032;-72
2023/04/24 05:13:31;;;;;;;4.50;3.70;;;11.10;99.90;;;;;;5063362;28;20045;-77
2023/04/24 05:15:57;;;;;;;7.82;5.00;;;11.10;99.90;;;;;;5062982;28;20029;-67
2023/04/24 05:18:23;;;;;;;7.00;5.05;;;11.10;99.90;;;;;;5062058;28;20028;-72
2023/04/24 05:20:48;;;;;;;12.88;5.32;;;11.10;99.90;;;;;;5063253;28;20563;-73
2023/04/24 05:23:14;;;;;;;6.53;4.22;;;11.10;99.90;;;;;;5062462;28;20021;-69
2023/04/24 05:25:41;;;;;;;8.05;5.20;;;11.10;99.90;;;;;;5063349;28;20033;-68
2023/04/24 05:28:06;;;;;;;7.82;4.68;;;11.10;99.90;;;;;;5063220;28;20017;-70
2023/04/24 05:30:32;;;;;;;9.38;5.53;;;11.10;99.90;;;;;;5063772;28;20031;-70
2023/04/24 05:32:58;;;;;;;11.05;6.03;;;11.20;99.90;;;;;;5062246;28;20051;-68
2023/04/24 05:35:23;;;;;;;12.05;6.85;;;11.20;99.90;;;;;;5063464;28;20036;-70
2023/04/24 05:37:49;;;;;;;12.85;6.95;;;11.20;99.90;;;;;;5062946;28;20028;-69
2023/04/24 05:40:15;;;;;;;19.60;7.95;;;11.20;99.90;;;;;;5063241;28;20021;-68
2023/04/24 05:42:40;;;;;;;15.95;7.68;;;11.30;99.90;;;;;;5063459;28;20028;-67
2023/04/24 05:45:07;;;;;;;10.90;6.38;;;11.20;99.90;;;;;;5062836;28;20057;-69
2023/04/24 05:47:33;;;;;;;9.73;5.53;;;11.20;99.90;;;;;;5063290;28;20083;-70
2023/04/24 05:49:58;;;;;;;10.32;6.15;;;11.20;99.90;;;;;;5063290;28;20017;-69
2023/04/24 05:52:24;;;;;;;11.93;6.22;;;11.30;99.90;;;;;;5063259;28;20064;-69
2023/04/24 05:54:50;;;;;;;10.02;6.47;;;11.20;99.90;;;;;;5062822;28;20082;-71
2023/04/24 05:57:16;;;;;;;8.80;5.60;;;11.30;99.90;;;;;;5063326;28;20466;-69
2023/04/24 05:59:41;;;;;;;8.90;6.13;;;11.30;99.90;;;;;;5062865;28;20024;-68
2023/04/24 06:02:07;;;;;;;8.02;6.18;;;11.30;99.90;;;;;;5059861;28;20045;-70
2023/04/24 06:04:33;;;;;;;11.18;6.80;;;11.30;99.90;;;;;;5060290;28;20028;-70
2023/04/24 06:06:59;;;;;;;9.75;7.05;;;11.30;99.90;;;;;;5061862;28;20029;-69
2023/04/24 06:09:25;;;;;;;12.73;7.65;;;11.40;99.90;;;;;;5060838;28;20054;-72
2023/04/24 06:11:54;;;;;;;13.25;8.15;;;11.40;99.90;;;;;;5061075;28;20052;-71
2023/04/24 06:14:20;;;;;;;16.77;7.07;;;11.40;99.90;;;;;;5061967;28;20071;-71
2023/04/24 06:16:45;;;;;;;21.73;10.30;;;11.40;99.90;;;;;;5060091;28;20094;-70
2023/04/24 06:19:11;;;;;;;15.98;10.13;;;11.40;99.90;;;;;;5059611;28;20036;-70
2023/04/24 06:21:37;;;;;;;18.67;9.98;;;11.40;99.90;;;;;;5057311;28;20039;-73
2023/04/24 06:24:04;;;;;;;17.65;9.38;;;11.40;99.90;;;;;;5061893;28;20032;-71
2023/04/24 06:26:30;;;;;;;19.88;10.68;;;11.50;99.90;;;;;;5061215;28;20043;-69
2023/04/24 06:28:56;;;;;;;22.10;10.45;;;11.50;99.90;;;;;;5061736;28;20033;-72
2023/04/24 06:31:22;;;;;;;16.83;9.55;;;11.50;99.90;;;;;;5058471;28;20040;-68
2023/04/24 06:33:48;;;;;;;18.08;11.13;;;11.50;99.90;;;;;;5059808;28;20017;-70
2023/04/24 06:36:14;;;;;;;20.25;10.57;;;11.50;99.90;;;;;;5054488;28;20064;-71
2023/04/24 06:38:39;;;;;;;21.92;11.50;;;11.50;99.90;;;;;;5060369;28;20051;-70
2023/04/24 06:41:06;;;;;;;21.20;11.48;;;11.50;99.90;;;;;;5058234;28;20424;-71
2023/04/24 06:43:32;;;;;;;19.38;11.80;;;11.50;99.90;;;;;;5058900;28;20039;-72
2023/04/24 06:45:58;;;;;;;22.05;11.50;;;11.50;99.90;;;;;;5061278;28;20517;-71
2023/04/24 06:48:25;;;;;;;20.05;11.00;;;11.50;99.90;;;;;;5060425;28;20028;-70
2023/04/24 06:50:50;;;;;;;20.08;10.73;;;11.50;99.90;;;;;;5059726;28;20021;-71
2023/04/24 06:53:16;;;;;;;13.82;7.90;;;11.40;99.90;;;;;;5057096;28;20047;-67
2023/04/24 06:55:43;;;;;;;13.57;7.88;;;11.40;99.90;;;;;;5056630;28;20044;-68
2023/04/24 06:58:09;;;;;;;16.95;8.40;;;11.30;99.90;;;;;;5060712;28;20036;-72
2023/04/24 07:00:35;;;;;;;18.50;9.95;;;11.30;99.90;;;;;;5057795;28;20025;-68
2023/04/24 07:03:01;;;;;;;17.00;10.55;;;11.30;99.90;;;;;;5061436;28;20029;-71
2023/04/24 07:05:26;;;;;;;21.27;11.02;;;11.40;99.90;;;;;;5056791;28;20047;-71
2023/04/24 07:07:53;;;;;;;18.08;10.63;;;11.40;99.90;;;;;;5060528;28;20033;-71
2023/04/24 07:10:18;;;;;;;18.38;11.00;;;11.40;99.90;;;;;;5059991;28;20028;-69
2023/04/24 07:12:44;;;;;;;21.90;12.50;;;11.50;99.90;;;;;;5059879;28;20049;-67
2023/04/24 07:15:10;;;;;;;14.63;9.07;;;11.50;99.90;;;;;;5060096;28;20029;-70
2023/04/24 07:17:38;;;;;;;20.65;11.10;;;11.50;99.90;;;;;;5060852;28;20025;-71
2023/04/24 07:20:04;;;;;;;22.73;11.43;;;11.60;99.90;;;;;;5059336;28;20063;-69
2023/04/24 07:22:30;;;;;;;23.80;13.02;;;11.50;99.90;;;;;;5060368;28;20025;-68
2023/04/24 07:24:55;;;;;;;17.88;10.70;;;11.40;99.90;;;;;;5060084;28;20068;-68
2023/04/24 07:27:21;;;;;;;19.98;12.43;;;11.40;99.90;;;;;;5058335;28;20041;-70
2023/04/24 07:29:46;;;;;;;23.92;12.77;;;11.40;99.90;;;;;;5054024;28;20021;-71
2023/04/24 07:32:12;;;;;;;24.00;11.77;;;11.40;99.90;;;;;;5060249;28;20575;-68
2023/04/24 07:34:38;;;;;;;21.33;12.27;;;11.40;99.90;;;;;;5058690;28;20059;-71
2023/04/24 07:37:03;;;;;;;27.65;13.15;;;11.40;99.90;;;;;;5060768;28;20036;-70
2023/04/24 07:39:29;;;;;;;19.67;12.63;;;11.40;99.90;;;;;;5058929;28;20067;-72
2023/04/24 07:41:55;;;;;;;25.50;14.07;;;11.40;99.90;;;;;;5059294;28;20040;-69
2023/04/24 07:44:20;;;;;;;20.30;11.57;;;11.40;99.90;;;;;;5057261;28;20032;-68
2023/04/24 07:46:46;;;;;;;24.02;12.48;;;11.50;99.90;;;;;;5059221;28;20436;-70
2023/04/24 07:49:12;;;;;;;20.60;11.25;;;11.50;99.90;;;;;;5059050;28;20138;-68
2023/04/24 07:51:38;;;;;;;17.83;9.85;;;11.60;99.90;;;;;;5058870;28;20044;-70
2023/04/24 07:54:08;;;;;;;17.83;10.63;;;11.60;99.90;;;;;;5060911;28;20056;-70
2023/04/24 07:56:34;;;;;;;16.92;9.75;;;11.70;99.90;;;;;;5058070;28;20112;-68
2023/04/24 07:59:01;;;;;;;16.02;11.13;;;11.70;99.90;;;;;;5058505;28;20363;-68
2023/04/24 08:01:26;;;;;;;18.73;10.98;;;11.70;99.90;;;;;;5055195;28;20023;-71
2023/04/24 08:03:52;;;;;;;21.60;10.98;;;11.80;99.90;;;;;;5057945;28;20088;-69
2023/04/24 08:06:18;;;;;;;18.38;11.50;;;11.80;99.90;;;;;;5060011;28;20052;-70
2023/04/24 08:08:43;;;;;;;18.70;10.35;;;11.90;99.90;;;;;;5059315;28;20033;-69
2023/04/24 08:11:09;;;;;;;17.77;10.63;;;11.80;99.90;;;;;;5054056;28;20032;-67
2023/04/24 08:13:34;;;;;;;18.67;12.27;;;11.90;99.90;;;;;;5060676;28;20449;-72
2023/04/24 08:16:01;;;;;;;14.13;9.20;;;11.90;99.90;;;;;;5059391;28;20027;-68
2023/04/24 08:18:26;;;;;;;16.25;10.52;;;11.90;99.90;;;;;;5056434;28;20052;-70
2023/04/24 08:20:52;;;;;;;19.38;10.63;;;11.90;99.90;;;;;;5056588;28;20482;-68
2023/04/24 08:23:17;;;;;;;16.67;10.20;;;11.90;99.90;;;;;;5060175;28;20116;-68
2023/04/24 08:25:43;;;;;;;17.30;9.10;;;11.90;99.90;;;;;;5060850;28;20040;-73
2023/04/24 08:28:09;;;;;;;17.35;10.73;;;11.80;99.90;;;;;;5061042;28;20081;-71
2023/04/24 08:30:35;;;;;;;16.85;9.45;;;11.80;99.90;;;;;;5062162;28;21905;-72
2023/04/24 08:33:01;;;;;;;18.40;10.40;;;11.70;99.90;;;;;;5064118;28;20095;-72
2023/04/24 08:35:26;;;;;;;22.17;10.93;;;11.70;99.90;;;;;;5064226;28;20492;-70
2023/04/24 08:37:53;;;;;;;15.27;9.00;;;11.70;99.90;;;;;;5063616;28;20055;-69
2023/04/24 08:40:26;;;;;;;16.92;10.15;;;11.70;99.90;;;;;;5063103;28;20032;-70
2023/04/24 08:42:54;;;;;;;19.88;9.85;;;11.60;99.90;;;;;;5062499;28;20034;-69
2023/04/24 08:45:20;;;;;;;17.63;10.55;;;11.60;99.90;;;;;;5062379;28;20049;-69
2023/04/24 08:47:46;;;;;;;20.20;11.10;;;11.70;99.90;;;;;;5063242;28;20096;-69
2023/04/24 08:50:12;;;;;;;18.10;10.93;;;11.70;99.90;;;;;;5062685;28;20465;-69
2023/04/24 08:52:42;;;;;;;23.08;12.27;;;11.60;99.90;;;;;;5062099;28;20417;-70
2023/04/24 08:55:09;;;;;;;21.08;12.07;;;11.70;99.90;;;;;;5061469;28;20029;-69
2023/04/24 08:57:38;;;;;;;19.35;11.50;;;11.70;99.90;;;;;;5061921;28;20169;-72
2023/04/24 09:00:05;;;;;;;19.25;11.57;;;11.70;99.90;;;;;;5060120;28;20043;-70
2023/04/24 09:02:31;;;;;;;20.50;12.30;;;11.60;99.90;;;;;;5063237;28;20044;-70
2023/04/24 09:04:57;;;;;;;17.15;11.05;;;11.60;99.90;;;;;;5063609;28;20086;-68
2023/04/24 09:07:26;;;;;;;19.05;11.95;;;11.60;99.90;;;;;;5059460;28;20643;-70
2023/04/24 09:09:52;;;;;;;19.45;11.82;;;11.60;99.90;;;;;;5062170;28;20032;-73
2023/04/24 09:12:19;;;;;;;17.80;11.57;;;11.50;99.90;;;;;;5060783;28;20049;-73
2023/04/24 09:14:45;;;;;;;19.13;11.75;;;11.50;99.90;;;;;;5059993;28;20025;-70
2023/04/24 09:17:12;;;;;;;16.48;11.07;;;11.60;99.90;;;;;;5059661;28;20044;-71
2023/04/24 09:19:37;;;;;;;20.83;11.43;;;11.60;99.90;;;;;;5062716;28;20067;-71
2023/04/24 09:22:07;;;;;;;19.30;11.45;;;11.60;99.90;;;;;;5063336;28;20025;-70
2023/04/24 09:24:34;;;;;;;16.92;11.02;;;11.60;99.90;;;;;;5063573;28;20052;-72
2023/04/24 09:27:04;;;;;;;14.73;9.05;;;11.70;99.90;;;;;;5063971;28;20052;-72
2023/04/24 09:29:31;;;;;;;20.50;11.45;;;11.60;99.90;;;;;;5062917;28;20064;-72
2023/04/24 09:31:57;;;;;;;19.92;10.85;;;11.60;99.90;;;;;;5063022;28;20111;-69
2023/04/24 09:34:25;;;;;;;19.35;11.93;;;11.50;99.90;;;;;;5063518;28;20486;-70
2023/04/24 09:36:51;;;;;;;20.90;11.38;;;11.60;99.90;;;;;;5060124;28;20020;-69
2023/04/24 09:39:20;;;;;;;22.42;12.13;;;11.60;99.90;;;;;;5059387;28;20482;-71
2023/04/24 09:41:53;;;;;;;20.67;12.48;;;11.60;99.90;;;;;;5057314;28;20037;-72
2023/04/24 09:44:21;;;;;;;22.42;12.25;;;11.60;99.90;;;;;;5058675;28;20024;-70
2023/04/24 09:46:57;;;;;;;21.10;13.55;;;11.60;99.90;;;;;;5060964;28;20041;-70
2023/04/24 09:49:25;;;;;;;17.20;10.93;;;11.60;99.90;;;;;;5059330;28;20033;-68
2023/04/24 09:51:51;;;;;;;20.50;10.93;;;11.60;99.90;;;;;;5060504;28;20044;-66
2023/04/24 09:54:21;;;;;;;19.75;11.27;;;11.70;99.90;;;;;;5058867;28;20087;-68
2023/04/24 09:56:50;;;;;;;14.43;9.27;;;11.70;99.90;;;;;;5060822;28;20041;-69
2023/04/24 09:59:19;;;;;;;14.63;8.10;;;11.70;99.90;;;;;;5062814;28;20030;-69
2023/04/24 10:01:49;;;;;;;15.57;9.82;;;11.70;99.90;;;;;;5059105;28;20048;-70
2023/04/24 10:04:18;;;;;;;17.17;10.55;;;11.70;99.90;;;;;;5060158;28;20083;-67
2023/04/24 10:06:45;;;;;;;24.40;13.73;;;11.70;99.90;;;;;;5059156;28;20101;-70
2023/04/24 10:09:12;;;;;;;28.55;17.48;;;11.70;99.90;;;;;;5058933;28;20025;-67
2023/04/24 10:11:42;;;;;;;29.02;19.27;;;11.60;99.90;;;;;;5060505;28;20600;-70
2023/04/24 10:14:11;;;;;;;27.05;18.15;;;11.60;99.90;;;;;;5059007;28;20040;-71
2023/04/24 10:16:40;;;;;;;32.83;17.10;;;11.50;99.90;;;;;;5061630;28;20061;-72
2023/04/24 10:19:06;;;;;;;28.20;17.13;;;11.50;99.90;;;;;;5061540;28;20024;-70
2023/04/24 10:21:34;;;;;;;29.35;18.27;;;11.40;99.90;;;;;;5061849;28;20032;-68
2023/04/24 10:24:03;;;;;;;30.05;17.63;;;11.40;99.90;;;;;;5061971;28;20029;-69
2023/04/24 10:26:29;;;;;;;26.10;15.48;;;11.30;99.90;;;;;;5061410;28;20033;-70
2023/04/24 10:28:58;;;;;;;28.65;16.38;;;11.30;99.90;;;;;;5060329;28;20078;-70
2023/04/24 10:31:24;;;;;;;24.73;16.98;;;11.20;99.90;;;;;;5060706;28;20021;-69
2023/04/24 10:33:51;;;;;;;27.13;14.70;;;11.30;99.90;;;;;;5061496;28;20029;-67
2023/04/24 10:36:18;;;;;;;27.70;15.30;;;11.30;99.90;;;;;;5060802;28;20029;-70
2023/04/24 10:38:46;;;;;;;24.10;15.48;;;11.30;99.90;;;;;;5062283;28;20036;-69
2023/04/24 10:41:19;;;;;;;25.05;15.70;;;11.40;99.90;;;;;;5061553;28;20075;-69
2023/04/24 10:43:45;;;;;;;33.05;17.65;;;11.40;99.90;;;;;;5062149;28;20021;-70
2023/04/24 10:46:19;;;;;;;27.15;17.75;;;11.50;99.90;;;;;;5060567;28;20153;-67
2023/04/24 10:48:54;;;;;;;25.52;16.13;;;11.50;99.90;;;;;;5062257;28;20037;-68
2023/04/24 10:51:22;;;;;;;28.52;16.48;;;11.60;99.90;;;;;;5061024;28;20032;-69
2023/04/24 10:53:52;;;;;;;26.58;16.02;;;11.60;99.90;;;;;;5060493;28;20048;-68
2023/04/24 10:56:18;;;;;;;26.40;15.95;;;11.60;99.90;;;;;;5061571;28;20029;-69
2023/04/24 10:58:52;;;;;;;20.73;13.25;;;11.60;99.90;;;;;;5060966;28;20114;-71
2023/04/24 11:01:31;;;;;;;20.88;10.65;;;11.60;99.90;;;;;;5060109;28;20044;-70
2023/04/24 11:04:02;;;;;;;20.80;12.27;;;11.50;99.90;;;;;;5061758;28;20037;-69
2023/04/24 11:06:36;;;;;;;21.45;11.65;;;11.40;99.90;;;;;;5060728;28;20084;-71
2023/04/24 11:09:05;;;;;;;21.70;12.95;;;11.30;99.90;;;;;;5076985;28;20115;-70
2023/04/24 11:11:32;;;;;;;21.63;13.07;;;11.20;99.90;;;;;;5061659;28;20017;-70
2023/04/24 11:13:58;;;;;;;21.17;13.52;;;11.20;99.90;;;;;;5060844;28;20032;-70
2023/04/24 11:16:45;;;;;;;20.92;14.45;;;11.10;99.90;;;;;;5061767;28;20086;-69
2023/04/24 11:19:16;;;;;;;22.42;14.90;;;11.10;99.90;;;;;;5058375;28;20021;-70
2023/04/24 11:21:55;;;;;;;21.83;13.88;;;11.00;99.90;;;;;;5060976;28;20053;-70
2023/04/24 11:24:27;;;;;;;21.20;14.63;;;11.00;99.90;;;;;;5060551;28;20060;-69
2023/04/24 11:27:03;;;;;;;24.98;14.48;;;10.90;99.90;;;;;;5060200;28;20116;-66
2023/04/24 11:29:40;;;;;;;21.63;14.82;;;10.90;99.90;;;;;;5058190;28;20033;-69
2023/04/24 11:32:19;;;;;;;22.08;14.60;;;11.00;99.90;;;;;;5053184;28;20063;-69
2023/04/24 11:34:50;;;;;;;21.75;13.70;;;11.00;99.90;;;;;;5060852;28;20025;-68
2023/04/24 11:37:16;;;;;;;21.83;12.18;;;11.00;99.90;;;;;;5059579;28;20470;-70
2023/04/24 11:39:42;;;;;;;18.63;12.20;;;11.00;99.90;;;;;;5060708;28;20029;-69
2023/04/24 11:42:09;;;;;;;18.63;11.93;;;10.90;99.90;;;;;;5056222;28;20025;-69
2023/04/24 11:44:38;;;;;;;21.42;13.18;;;10.90;99.90;;;;;;5059017;28;20078;-71
2023/04/24 11:47:08;;;;;;;21.90;13.52;;;10.80;99.90;;;;;;5058739;28;20498;-70
2023/04/24 11:49:33;;;;;;;18.75;13.30;;;10.80;99.90;;;;;;5058142;28;20033;-68
2023/04/24 11:52:03;;;;;;;19.77;14.48;;;10.80;99.90;;;;;;5058291;28;20047;-70
2023/04/24 11:54:29;;;;;;;22.98;14.52;;;10.70;99.90;;;;;;5061021;28;20468;-69
2023/04/24 11:56:56;;;;;;;22.98;16.13;;;10.70;99.90;;;;;;5061370;28;20036;-70
2023/04/24 11:59:21;;;;;;;28.05;17.33;;;10.70;99.90;;;;;;5059204;28;20051;-70
2023/04/24 12:01:49;;;;;;;26.80;17.00;;;10.70;99.90;;;;;;5061685;28;20017;-71
2023/04/24 12:04:16;;;;;;;30.92;18.27;;;10.60;99.90;;;;;;5062029;28;20093;-69
2023/04/24 12:07:04;;;;;;;33.28;19.25;;;10.50;99.90;;;;;;5065055;28;20025;-70
2023/04/24 12:09:59;;;;;;;45.40;21.67;;;10.40;99.90;;;;;;5064476;28;20044;-71
2023/04/24 12:12:26;;;;;;;40.40;21.30;;;10.40;99.90;;;;;;5065016;28;20078;-69
2023/04/24 12:14:57;;;;;;;67.50;24.40;;;10.30;99.90;;;;;;5065055;28;20021;-69
2023/04/24 12:17:30;;;;;;;53.25;27.95;;;10.20;99.90;;;;;;5065069;28;20112;-71
2023/04/24 12:20:08;;;;;;;44.88;23.10;;;10.10;99.90;;;;;;5063789;28;20032;-69
2023/04/24 12:22:54;;;;;;;46.42;22.85;;;10.10;99.90;;;;;;5065076;28;20514;-69
2023/04/24 12:25:21;;;;;;;30.48;13.85;;;10.00;99.90;;;;;;5064442;28;20498;-69
2023/04/24 12:27:55;;;;;;;24.42;13.52;;;9.90;99.90;;;;;;5063572;28;20029;-68
2023/04/24 12:30:21;;;;;;;25.90;14.50;;;9.80;99.90;;;;;;5065028;28;20028;-70
2023/04/24 12:32:48;;;;;;;44.97;19.63;;;9.70;99.90;;;;;;5064666;28;20041;-69
2023/04/24 12:35:20;;;;;;;39.08;17.15;;;9.70;99.90;;;;;;5062905;28;20021;-71